MPTO/PTY METAR and TAF weather

Enter ICAO airport designator
Station Type Date Time Source
MPTO METAR 2019/09/21 21:00 UTC NOAA

MPTO 212100Z 13004KT 9000 DZ SCT017CB BKN090 28/24 Q1012 NOSIG


Station Type Date Time Source
MPTO Decoded METAR 2019/09/21 21:00 UTC NOAA

Tocumen, Panama (MPTO) 09-03N 079-22W
Sep 21, 2019 - 05:00 PM EDT / 2019.09.21 2100 UTC
Wind: from the SE (130 degrees) at 5 MPH (4 KT):0
Visibility: 5 mile(s):0
Sky conditions: mostly cloudy
Weather: drizzle; Cumulonimbus clouds observed
Temperature: 82 F (28 C)
Dew Point: 75 F (24 C)
Relative Humidity: 78%
Pressure (altimeter): 29.88 in. Hg (1012 hPa)
ob: MPTO 212100Z 13004KT 9000 DZ SCT017CB BKN090 28/24 Q1012 NOSIG
cycle: 21

Station Type Date Time Source
MPTO TAF 2019/09/21 18:03 UTC NOAA

TAF MPTO 211700Z 2118/2224 18008KT 9999 SCT018 SCT100
BECMG 2122/2202 02006KT SCT015 SCT070
TEMPO 2202/2204 7000 -RA FEW010 SCT013

Example: see airport list